createdAt,value
2023-01-23T00:00:14.131Z,24.80
2023-01-23T00:02:41.123Z,27.00
2023-01-23T00:05:08.357Z,26.83
2023-01-23T00:07:35.122Z,26.77
2023-01-23T00:10:04.347Z,27.15
2023-01-23T00:12:31.377Z,26.17
2023-01-23T00:14:58.188Z,26.65
2023-01-23T00:17:27.207Z,26.50
2023-01-23T00:19:54.930Z,26.55
2023-01-23T00:22:21.897Z,26.35
2023-01-23T00:24:48.713Z,24.88
2023-01-23T00:27:15.550Z,23.23
2023-01-23T00:29:42.500Z,25.00
2023-01-23T00:32:09.330Z,24.38
2023-01-23T00:34:36.127Z,24.77
2023-01-23T00:37:02.947Z,23.45
2023-01-23T00:39:30.037Z,21.25
2023-01-23T00:41:58.377Z,22.10
2023-01-23T00:44:25.185Z,23.15
2023-01-23T00:46:52.011Z,23.85
2023-01-23T00:49:19.597Z,23.77
2023-01-23T00:51:46.546Z,20.20
2023-01-23T00:54:13.369Z,22.15
2023-01-23T00:56:40.160Z,21.20
2023-01-23T00:59:07.089Z,20.83
2023-01-23T01:01:34.050Z,20.55
2023-01-23T01:04:01.028Z,20.67
2023-01-23T01:06:29.913Z,19.35
2023-01-23T01:08:57.891Z,19.45
2023-01-23T01:11:24.706Z,19.52
2023-01-23T01:13:51.473Z,20.27
2023-01-23T01:16:18.377Z,18.90
2023-01-23T01:18:45.268Z,19.20
2023-01-23T01:21:14.661Z,18.08
2023-01-23T01:23:41.598Z,18.25
2023-01-23T01:26:08.577Z,17.70
2023-01-23T01:28:36.453Z,18.10
2023-01-23T01:31:05.820Z,17.65
2023-01-23T01:33:34.432Z,19.17
2023-01-23T01:36:02.003Z,18.27
2023-01-23T01:38:29.120Z,17.52
2023-01-23T01:40:57.933Z,17.95
2023-01-23T01:43:26.572Z,18.98
2023-01-23T01:46:07.266Z,19.15
2023-01-23T01:48:38.708Z,19.40
2023-01-23T01:51:12.155Z,18.02
2023-01-23T01:53:38.949Z,16.45
2023-01-23T01:56:06.986Z,18.30
2023-01-23T01:58:33.824Z,17.40
2023-01-23T02:01:00.847Z,19.52
2023-01-23T02:03:27.765Z,17.25
2023-01-23T02:05:54.677Z,17.20
2023-01-23T02:08:41.847Z,16.95
2023-01-23T02:11:08.743Z,16.08
2023-01-23T02:13:39.398Z,16.08
2023-01-23T02:16:08.345Z,16.13
2023-01-23T02:18:36.078Z,15.77
2023-01-23T02:21:07.857Z,15.43
2023-01-23T02:23:34.704Z,16.80
2023-01-23T02:26:03.610Z,15.07
2023-01-23T02:28:48.768Z,16.10
2023-01-23T02:31:20.123Z,16.13
2023-01-23T02:33:49.422Z,14.27
2023-01-23T02:36:17.539Z,15.35
2023-01-23T02:38:54.738Z,14.32
2023-01-23T02:41:28.990Z,14.70
2023-01-23T02:43:56.974Z,14.75
2023-01-23T02:46:23.990Z,14.52
2023-01-23T02:48:50.822Z,15.05
2023-01-23T02:51:18.692Z,13.63
2023-01-23T02:53:45.764Z,13.63
2023-01-23T02:56:12.687Z,14.15
2023-01-23T02:58:58.097Z,13.93
2023-01-23T03:01:25.651Z,14.15
2023-01-23T03:03:55.955Z,14.10
2023-01-23T03:06:23.096Z,15.23
2023-01-23T03:08:50.634Z,12.77
2023-01-23T03:11:18.172Z,13.98
2023-01-23T03:13:46.499Z,14.35
2023-01-23T03:16:13.567Z,14.13
2023-01-23T03:18:53.467Z,14.07
2023-01-23T03:21:21.284Z,12.98
2023-01-23T03:23:48.414Z,13.20
2023-01-23T03:26:15.268Z,12.30
2023-01-23T03:29:01.576Z,14.10
2023-01-23T03:31:28.367Z,14.07
2023-01-23T03:33:55.354Z,12.48
2023-01-23T03:36:23.198Z,13.23
2023-01-23T03:39:08.778Z,14.40
2023-01-23T03:41:38.237Z,13.73
2023-01-23T03:44:06.534Z,13.35
2023-01-23T03:46:33.370Z,14.90
2023-01-23T03:49:00.487Z,11.93
2023-01-23T03:51:27.368Z,12.07
2023-01-23T03:53:54.692Z,13.38
2023-01-23T03:56:21.640Z,13.07
2023-01-23T03:58:48.437Z,11.48
2023-01-23T04:01:15.547Z,11.63
2023-01-23T04:03:44.024Z,12.38
2023-01-23T04:06:10.837Z,11.82
2023-01-23T04:08:38.134Z,13.15
2023-01-23T04:11:06.316Z,15.50
2023-01-23T04:13:33.178Z,13.80
2023-01-23T04:16:00.745Z,13.27
2023-01-23T04:18:27.923Z,13.02
2023-01-23T04:20:55.007Z,13.95
2023-01-23T04:23:21.893Z,13.70
2023-01-23T04:25:48.883Z,12.82
2023-01-23T04:28:16.750Z,11.82
2023-01-23T04:30:45.155Z,11.30
2023-01-23T04:33:19.941Z,11.73
2023-01-23T04:35:55.981Z,11.65
2023-01-23T04:38:26.866Z,12.80
2023-01-23T04:40:53.908Z,13.57
2023-01-23T04:43:20.953Z,15.13
2023-01-23T04:45:51.687Z,13.90
2023-01-23T04:48:50.709Z,12.95
2023-01-23T04:51:18.016Z,12.73
2023-01-23T04:53:45.873Z,12.40
2023-01-23T04:56:12.705Z,13.05
2023-01-23T04:58:39.529Z,13.77
2023-01-23T05:01:13.565Z,17.05
2023-01-23T05:03:40.422Z,15.85
2023-01-23T05:06:07.463Z,18.58
2023-01-23T05:08:35.034Z,18.63
2023-01-23T05:11:34.273Z,18.38
2023-01-23T05:14:01.852Z,19.13
2023-01-23T05:16:30.580Z,20.58
2023-01-23T05:19:18.690Z,24.80
2023-01-23T05:21:46.082Z,22.95
2023-01-23T05:24:17.064Z,25.85
2023-01-23T05:26:44.931Z,25.48
2023-01-23T05:29:11.726Z,22.27
2023-01-23T05:31:47.474Z,23.25
2023-01-23T05:34:37.200Z,20.45
2023-01-23T05:37:09.658Z,25.27
2023-01-23T05:39:38.921Z,23.42
2023-01-23T05:42:05.873Z,24.33
2023-01-23T05:44:59.884Z,24.95
2023-01-23T05:47:30.955Z,25.73
2023-01-23T05:49:58.149Z,23.60
2023-01-23T05:52:30.309Z,23.50
2023-01-23T05:54:57.357Z,25.52
2023-01-23T05:57:25.794Z,23.52
2023-01-23T06:00:13.265Z,24.85
2023-01-23T06:02:48.182Z,23.88
2023-01-23T06:05:15.116Z,23.38
2023-01-23T06:07:58.281Z,22.55
2023-01-23T06:10:25.368Z,22.92
2023-01-23T06:12:52.268Z,26.45
2023-01-23T06:15:19.318Z,22.75
2023-01-23T06:17:46.597Z,23.23
2023-01-23T06:20:13.855Z,21.95
2023-01-23T06:22:43.586Z,24.27
2023-01-23T06:25:12.715Z,23.25
2023-01-23T06:27:39.750Z,23.38
2023-01-23T06:30:09.340Z,25.33
2023-01-23T06:32:41.500Z,23.45
2023-01-23T06:35:09.998Z,26.25
2023-01-23T06:37:39.907Z,21.13
2023-01-23T06:40:13.141Z,23.33
2023-01-23T06:42:42.731Z,24.65
2023-01-23T06:45:10.523Z,22.05
2023-01-23T06:47:37.416Z,24.40
2023-01-23T06:50:04.967Z,24.05
2023-01-23T06:52:36.821Z,23.00
2023-01-23T06:55:03.820Z,19.88
2023-01-23T06:57:30.651Z,18.55
2023-01-23T06:59:57.893Z,18.23
2023-01-23T07:02:25.353Z,20.27
2023-01-23T07:04:52.366Z,20.27
2023-01-23T07:07:20.008Z,19.38
2023-01-23T07:09:48.844Z,19.92
2023-01-23T07:12:21.981Z,19.35
2023-01-23T07:14:49.670Z,18.73
2023-01-23T07:17:24.750Z,19.13
2023-01-23T07:19:51.823Z,21.25
2023-01-23T07:22:20.294Z,22.02
2023-01-23T07:24:47.811Z,21.02
2023-01-23T07:27:15.093Z,22.65
2023-01-23T07:29:42.570Z,22.52
2023-01-23T07:32:11.054Z,21.70
2023-01-23T07:34:38.214Z,20.63
2023-01-23T07:37:05.017Z,24.10
2023-01-23T07:39:31.929Z,21.60
2023-01-23T07:41:58.688Z,22.20
2023-01-23T07:44:28.381Z,21.95
2023-01-23T07:46:55.210Z,20.38
2023-01-23T07:49:22.039Z,21.30
2023-01-23T07:51:48.771Z,20.00
2023-01-23T07:54:15.590Z,20.83
2023-01-23T07:56:42.419Z,20.48
2023-01-23T07:59:09.234Z,19.45
2023-01-23T08:01:36.132Z,18.50
2023-01-23T08:04:02.960Z,18.25
2023-01-23T08:06:29.778Z,20.00
2023-01-23T08:08:56.630Z,21.60
2023-01-23T08:11:26.482Z,21.88
2023-01-23T08:13:53.291Z,22.90
2023-01-23T08:16:20.156Z,22.50
2023-01-23T08:18:46.997Z,21.73
2023-01-23T08:21:13.768Z,20.63
2023-01-23T08:23:41.138Z,19.90
2023-01-23T08:26:08.859Z,20.67
2023-01-23T08:28:36.140Z,21.02
2023-01-23T08:31:06.694Z,20.50
2023-01-23T08:33:34.235Z,19.58
2023-01-23T08:36:01.242Z,20.60
2023-01-23T08:38:28.099Z,17.38
2023-01-23T08:40:57.723Z,18.90
2023-01-23T08:43:24.473Z,19.40
2023-01-23T08:45:55.713Z,20.65
2023-01-23T08:48:23.318Z,18.23
2023-01-23T08:50:50.380Z,17.40
2023-01-23T08:53:17.191Z,17.15
2023-01-23T08:55:43.959Z,18.75
2023-01-23T08:58:13.015Z,17.02
2023-01-23T09:00:40.441Z,16.98
2023-01-23T09:03:08.886Z,17.80
2023-01-23T09:05:36.774Z,17.70
2023-01-23T09:08:03.662Z,17.67
2023-01-23T09:10:30.438Z,17.42
2023-01-23T09:12:57.335Z,17.77
2023-01-23T09:15:24.110Z,20.23
2023-01-23T09:17:50.931Z,18.08
2023-01-23T09:20:17.940Z,20.35
2023-01-23T09:22:44.983Z,19.75
2023-01-23T09:25:12.287Z,21.77
2023-01-23T09:27:39.075Z,20.45
2023-01-23T09:30:06.576Z,21.77
2023-01-23T09:32:33.457Z,20.92
2023-01-23T09:35:00.279Z,22.42
2023-01-23T09:37:50.887Z,20.90
2023-01-23T09:40:19.228Z,21.85
2023-01-23T09:42:46.200Z,24.13
2023-01-23T09:45:15.373Z,22.77
2023-01-23T09:48:04.838Z,21.98
2023-01-23T09:50:33.548Z,21.70
2023-01-23T09:53:05.981Z,21.75
2023-01-23T09:55:44.242Z,22.20
2023-01-23T09:58:24.326Z,20.00
2023-01-23T10:00:51.563Z,21.10
2023-01-23T10:03:18.406Z,22.98
2023-01-23T10:06:23.410Z,21.67
2023-01-23T10:09:04.910Z,22.27
2023-01-23T10:11:43.777Z,23.52
2023-01-23T10:14:36.706Z,23.90
2023-01-23T10:17:22.474Z,25.50
2023-01-23T10:20:10.020Z,25.35
2023-01-23T10:22:41.781Z,25.70
2023-01-23T10:25:23.217Z,28.90
2023-01-23T10:27:50.528Z,25.63
2023-01-23T10:30:27.001Z,29.70
2023-01-23T10:32:59.163Z,29.17
2023-01-23T10:35:36.451Z,27.23
2023-01-23T10:38:31.394Z,29.52
2023-01-23T10:41:13.347Z,26.70
2023-01-23T10:43:43.969Z,27.92
2023-01-23T10:46:28.093Z,27.83
2023-01-23T10:51:39.788Z,28.23
2023-01-23T10:54:30.829Z,28.75
2023-01-23T10:57:20.052Z,28.38
2023-01-23T11:00:39.274Z,31.95
2023-01-23T11:03:21.265Z,30.80
2023-01-23T11:05:53.516Z,31.05
2023-01-23T11:08:28.197Z,31.42
2023-01-23T11:11:08.992Z,31.60
2023-01-23T11:13:35.730Z,30.38
2023-01-23T11:16:02.649Z,28.77
2023-01-23T11:18:34.491Z,29.45
2023-01-23T11:21:01.779Z,30.83
2023-01-23T11:23:29.112Z,31.02
2023-01-23T11:25:56.453Z,29.52
2023-01-23T11:28:35.071Z,30.67
2023-01-23T11:31:15.933Z,33.60
2023-01-23T11:34:01.418Z,29.52
2023-01-23T11:36:36.795Z,32.45
2023-01-23T11:39:33.449Z,30.30
2023-01-23T11:42:00.250Z,33.22
2023-01-23T11:44:30.067Z,30.08
2023-01-23T11:47:13.820Z,30.40
2023-01-23T11:50:10.770Z,31.92
2023-01-23T11:53:41.543Z,32.90
2023-01-23T11:56:18.844Z,31.80
2023-01-23T11:59:09.145Z,33.40
2023-01-23T12:02:03.432Z,33.63
2023-01-23T12:05:27.568Z,32.83
2023-01-23T12:08:32.905Z,34.42
2023-01-23T12:11:16.553Z,32.13
2023-01-23T12:14:10.517Z,34.45
2023-01-23T12:16:48.371Z,32.72
2023-01-23T12:19:36.361Z,31.60
2023-01-23T12:22:16.659Z,32.13
2023-01-23T12:24:48.095Z,31.60
2023-01-23T12:27:17.920Z,32.78
2023-01-23T12:30:15.866Z,33.50
2023-01-23T12:32:54.806Z,30.70
2023-01-23T12:35:24.383Z,32.45
2023-01-23T12:38:09.775Z,32.20
2023-01-23T12:41:03.259Z,31.98
2023-01-23T12:44:08.532Z,34.10
2023-01-23T12:46:42.031Z,32.25
2023-01-23T12:49:23.954Z,31.42
2023-01-23T12:51:55.565Z,33.42
2023-01-23T12:54:32.907Z,29.65
2023-01-23T12:56:59.817Z,30.55
2023-01-23T12:59:40.036Z,29.58
2023-01-23T13:02:19.786Z,30.73
2023-01-23T13:05:09.943Z,29.92
2023-01-23T13:07:56.373Z,29.52
2023-01-23T13:11:22.265Z,27.90
2023-01-23T13:13:49.123Z,32.72
2023-01-23T13:16:17.754Z,32.33
2023-01-23T13:19:29.854Z,31.73
2023-01-23T13:22:22.468Z,34.97
2023-01-23T13:25:14.384Z,30.95
2023-01-23T13:27:55.587Z,31.52
2023-01-23T13:30:36.247Z,31.85
2023-01-23T13:33:06.085Z,28.65
2023-01-23T13:35:44.834Z,31.15
2023-01-23T13:38:30.128Z,28.55
2023-01-23T13:41:11.267Z,21.73
2023-01-23T13:43:50.355Z,18.17
2023-01-23T14:24:29.378Z,19.48
2023-01-23T14:27:08.495Z,24.00
2023-01-23T14:29:35.904Z,28.35
2023-01-23T14:32:02.806Z,27.70
2023-01-23T14:34:29.688Z,30.55
2023-01-23T14:37:06.795Z,28.35
2023-01-23T14:39:34.390Z,26.50
2023-01-23T14:42:03.312Z,15.05
2023-01-23T14:44:45.685Z,11.20
2023-01-23T14:47:18.251Z,9.43
2023-01-23T14:49:45.323Z,8.65
2023-01-23T14:52:25.842Z,7.35
2023-01-23T14:54:54.416Z,7.22
2023-01-23T14:57:22.864Z,6.80
2023-01-23T14:59:49.906Z,6.32
2023-01-23T15:02:33.776Z,6.10
2023-01-23T15:08:15.552Z,5.78
2023-01-23T15:10:42.445Z,6.25
2023-01-23T15:13:13.881Z,7.18
2023-01-23T15:15:45.500Z,6.00
2023-01-23T15:18:23.622Z,5.90
2023-01-23T15:21:07.328Z,6.28
2023-01-23T15:23:40.552Z,6.70
2023-01-23T15:26:31.855Z,6.00
2023-01-23T15:29:06.103Z,8.68
2023-01-23T15:31:39.818Z,6.38
2023-01-23T15:34:15.636Z,6.00
2023-01-23T15:36:48.683Z,7.32
2023-01-23T15:39:24.795Z,6.32
2023-01-23T15:42:00.382Z,5.32
2023-01-23T15:44:29.031Z,6.38
2023-01-23T15:46:56.638Z,5.95
2023-01-23T15:49:26.415Z,6.97
2023-01-23T15:52:02.287Z,6.80
2023-01-23T15:54:36.154Z,6.57
2023-01-23T15:57:08.730Z,6.53
2023-01-23T15:59:36.220Z,7.17
2023-01-23T16:02:03.361Z,6.95
2023-01-23T16:04:30.292Z,7.05
2023-01-23T16:06:58.789Z,6.78
2023-01-23T16:09:30.820Z,11.82
2023-01-23T16:11:59.027Z,11.75
2023-01-23T16:14:25.957Z,12.23
2023-01-23T16:16:53.138Z,13.05
2023-01-23T16:19:20.113Z,18.35
2023-01-23T16:21:52.935Z,14.98
2023-01-23T16:24:26.946Z,13.68
2023-01-23T16:26:56.525Z,14.80
2023-01-23T16:29:30.760Z,14.25
2023-01-23T16:31:59.145Z,14.82
2023-01-23T16:34:26.438Z,14.52
2023-01-23T16:36:55.145Z,15.27
2023-01-23T16:39:23.886Z,13.60
2023-01-23T16:41:50.836Z,13.10
2023-01-23T16:44:18.557Z,14.00
2023-01-23T16:46:48.826Z,13.65
2023-01-23T16:49:15.967Z,13.02
2023-01-23T16:51:46.205Z,12.05
2023-01-23T16:54:19.244Z,12.75
2023-01-23T16:56:47.961Z,10.60
2023-01-23T16:59:16.711Z,11.48
2023-01-23T17:01:44.708Z,10.07
2023-01-23T17:04:13.936Z,10.02
2023-01-23T17:06:40.719Z,8.73
2023-01-23T17:09:07.591Z,7.70
2023-01-23T17:11:36.856Z,7.03
2023-01-23T17:14:14.841Z,7.13
2023-01-23T17:16:41.786Z,6.30
2023-01-23T17:19:16.999Z,6.70
2023-01-23T17:21:44.045Z,6.50
2023-01-23T17:24:17.710Z,6.00
2023-01-23T17:29:11.503Z,5.63
2023-01-23T17:31:38.869Z,5.65
2023-01-23T17:34:05.831Z,5.95
2023-01-23T17:36:32.659Z,6.47
2023-01-23T17:38:59.615Z,5.68
2023-01-23T17:41:26.405Z,6.32
2023-01-23T17:43:53.183Z,5.43
2023-01-23T17:46:27.199Z,7.47
2023-01-23T17:48:54.388Z,7.63
2023-01-23T17:51:21.621Z,8.52
2023-01-23T17:53:48.544Z,8.75
2023-01-23T17:56:15.517Z,8.38
2023-01-23T17:58:42.430Z,9.35
2023-01-23T18:01:21.821Z,7.90
2023-01-23T18:03:49.890Z,9.07
2023-01-23T18:06:17.207Z,8.25
2023-01-23T18:08:43.979Z,9.10
2023-01-23T18:11:31.102Z,8.73
2023-01-23T18:14:15.546Z,7.88
2023-01-23T18:16:45.458Z,8.93
2023-01-23T18:19:25.188Z,9.95
2023-01-23T18:21:53.979Z,8.23
2023-01-23T18:24:30.024Z,8.82
2023-01-23T18:27:04.858Z,8.80
2023-01-23T18:30:09.370Z,9.43
2023-01-23T18:35:29.676Z,10.63
2023-01-23T18:38:36.524Z,10.07
2023-01-23T18:41:03.336Z,12.10
2023-01-23T18:44:13.053Z,12.45
2023-01-23T18:46:41.244Z,13.20
2023-01-23T18:49:16.937Z,11.88
2023-01-23T18:52:00.047Z,10.25
2023-01-23T18:54:33.459Z,10.73
2023-01-23T18:57:12.985Z,10.75
2023-01-23T18:59:50.203Z,10.13
2023-01-23T19:02:52.714Z,9.63
2023-01-23T19:05:30.604Z,11.07
2023-01-23T19:07:57.744Z,10.15
2023-01-23T19:10:27.064Z,11.38
2023-01-23T19:13:03.915Z,11.73
2023-01-23T19:15:37.048Z,12.50
2023-01-23T19:18:13.080Z,11.80
2023-01-23T19:20:48.189Z,9.95
2023-01-23T19:23:37.657Z,10.82
2023-01-23T19:26:05.158Z,9.82
2023-01-23T19:28:32.219Z,9.88
2023-01-23T19:30:59.410Z,9.70
2023-01-23T19:33:26.269Z,9.13
2023-01-23T19:35:56.463Z,9.32
2023-01-23T19:38:23.613Z,9.77
2023-01-23T19:40:50.492Z,8.90
2023-01-23T19:43:17.632Z,9.50
2023-01-23T19:45:44.941Z,10.50
2023-01-23T19:48:11.944Z,9.70
2023-01-23T19:50:39.057Z,8.90
2023-01-23T19:53:05.914Z,9.05
2023-01-23T19:55:34.452Z,8.57
2023-01-23T19:58:01.271Z,9.98
2023-01-23T20:00:30.795Z,9.18
2023-01-23T20:02:57.773Z,9.65
2023-01-23T20:05:25.005Z,9.48
2023-01-23T20:07:52.054Z,8.68
2023-01-23T20:10:18.966Z,8.48
2023-01-23T20:12:47.201Z,9.05
2023-01-23T20:15:14.546Z,8.52
2023-01-23T20:17:41.581Z,8.23
2023-01-23T20:20:10.820Z,9.25
2023-01-23T20:22:40.833Z,8.70
2023-01-23T20:25:09.324Z,10.02
2023-01-23T20:27:36.601Z,9.35
2023-01-23T20:30:07.961Z,9.88
2023-01-23T20:32:34.897Z,9.73
2023-01-23T20:35:01.816Z,10.13
2023-01-23T20:37:28.905Z,9.55
2023-01-23T20:39:55.777Z,10.10
2023-01-23T20:42:22.599Z,9.52
2023-01-23T20:44:49.538Z,9.18
2023-01-23T20:47:16.414Z,9.43
2023-01-23T20:49:43.235Z,8.90
2023-01-23T20:52:28.829Z,9.55
2023-01-23T20:54:55.723Z,8.73
2023-01-23T20:57:22.472Z,9.05
2023-01-23T20:59:49.205Z,9.68
2023-01-23T21:02:25.572Z,8.88
2023-01-23T21:04:53.139Z,11.27
2023-01-23T21:07:24.456Z,11.27
2023-01-23T21:09:51.439Z,11.15
2023-01-23T21:12:18.210Z,11.65
2023-01-23T21:14:45.056Z,11.95
2023-01-23T21:17:11.857Z,10.80
2023-01-23T21:19:39.131Z,10.50
2023-01-23T21:22:06.818Z,10.95
2023-01-23T21:24:34.501Z,10.32
2023-01-23T21:27:02.815Z,10.63
2023-01-23T21:29:30.196Z,9.90
2023-01-23T21:31:57.658Z,10.07
2023-01-23T21:34:25.053Z,9.73
2023-01-23T21:36:51.954Z,9.45
2023-01-23T21:39:18.870Z,10.10
2023-01-23T21:41:45.755Z,8.95
2023-01-23T21:44:13.040Z,8.35
2023-01-23T21:46:40.008Z,8.85
2023-01-23T21:49:06.778Z,8.88
2023-01-23T21:51:33.670Z,9.00
2023-01-23T21:54:01.535Z,9.32
2023-01-23T21:56:28.543Z,8.82
2023-01-23T21:58:56.826Z,8.82
2023-01-23T22:01:35.947Z,8.77
2023-01-23T22:04:05.184Z,8.63
2023-01-23T22:06:32.417Z,8.88
2023-01-23T22:08:59.342Z,9.23
2023-01-23T22:11:26.339Z,7.75
2023-01-23T22:13:53.305Z,9.73
2023-01-23T22:16:22.880Z,9.35
2023-01-23T22:18:55.274Z,8.60
2023-01-23T22:21:22.095Z,9.15
2023-01-23T22:23:49.016Z,9.40
2023-01-23T22:26:16.470Z,8.35
2023-01-23T22:28:43.233Z,8.68
2023-01-23T22:31:11.792Z,9.02
2023-01-23T22:33:47.257Z,9.02
2023-01-23T22:36:19.204Z,9.13
2023-01-23T22:38:53.206Z,10.98
2023-01-23T22:41:20.076Z,9.30
2023-01-23T22:43:47.165Z,9.90
2023-01-23T22:46:16.020Z,10.10
2023-01-23T22:48:42.791Z,9.38
2023-01-23T22:51:17.398Z,8.50
2023-01-23T22:53:44.221Z,8.88
2023-01-23T22:56:11.112Z,9.07
2023-01-23T22:58:39.041Z,8.77
2023-01-23T23:01:06.034Z,9.63
2023-01-23T23:03:33.568Z,9.25
2023-01-23T23:06:02.684Z,8.68
2023-01-23T23:08:29.797Z,8.00
2023-01-23T23:11:14.203Z,7.68
2023-01-23T23:13:41.028Z,8.68
2023-01-23T23:16:17.663Z,8.93
2023-01-23T23:18:45.724Z,8.48
2023-01-23T23:21:13.652Z,9.00
2023-01-23T23:23:40.437Z,8.60
2023-01-23T23:26:07.683Z,9.45
2023-01-23T23:28:34.534Z,8.02
2023-01-23T23:31:01.672Z,10.43
2023-01-23T23:33:28.605Z,9.63
2023-01-23T23:35:55.458Z,9.40
2023-01-23T23:38:22.282Z,9.63
2023-01-23T23:41:00.041Z,9.00
2023-01-23T23:43:27.022Z,9.30
2023-01-23T23:45:54.626Z,8.32
2023-01-23T23:48:21.591Z,9.00
2023-01-23T23:50:48.433Z,9.52
2023-01-23T23:53:15.365Z,8.82
2023-01-23T23:55:42.201Z,8.48
2023-01-23T23:58:09.098Z,8.55
